Fairbanks, AK

11:03 PM AKST on December 07, 2016 (GMT -0900)
200 Slater Dr. | | Change Station

Elev 450 ft 64.84 °N, 147.70 °W | Updated 22 seconds ago

Clear
Clear
-19.3 °F
Feels Like -19 °F
N
0.0
Wind Variable Wind from North
Gusts 0.0 mph

Today
High -- | Low -- °F
--% Chance of Precip.
Yesterday
High -- | Low -- °F
Precip. -- in
Pressure 30.69 in
Visibility 10.0 miles
Clouds Clear
Windchill -19 °F
Dew Point -24 °F
Humidity 80%
Rainfall 0.00 in
Snow Depth Not available.
10:37 AM 2:47 PM
First Quarter, 61% visible
METAR PAFB 080758Z AUTO 06007KT 10SM CLR M24/M27 A3062 RMK AO2 SLP391 T12381274
Pressure 30.69 in
Visibility 10.0 miles
Clouds Clear
Windchill -19 °F
Dew Point -24 °F
Humidity 80%
Rainfall 0.00 in
Snow Depth Not available.
10:37 AM 2:47 PM
First Quarter, 61% visible
METAR PAFB 080758Z AUTO 06007KT 10SM CLR M24/M27 A3062 RMK AO2 SLP391 T12381274

10-Day Weather Forecast

Almanac

Astronomy

Dec. 07, 2016 Rise Set
Actual Time
Civil Twilight
Nautical Twilight
Astronomical Twilight
Moon
Length of Visible Light
Length of Day
Tomorrow will be .
, % of the Moon is Illuminated

Today's Extremes

State Highs State Lows

Community

WunderPhotos

Upload Photos

1,956,259 photos uploaded!

WunderBlog® & News

Nearby

Air Quality

  Air Quality AQ Index Pollutant
Not available.

Snow Depth

Station Depth Elevation

Earthquake Activity

City Distance Mag. Time & Date
Minimum magnitude displayed is 2.5.

Coastal Water Temperatures

Place Temperature

Stations

Nearby Weather Stations

Station Location Temp. Windchill Dew Point Humidity Wind Precip. Elev Updated Type
                   

Watches & Warnings

There are currently no watches in effect.